Time;durP1;ratioP1;P1;durP2;ratioP2;P2;SDS_P1;SDS_P2;PMS_P1;PMS_P2;Temp;Humidity;BMP_temperature;BMP_pressure;BME280_temperature;BME280_humidity;BME280_pressure;Samples;Min_cycle;Max_cycle;Signal;HPM_P1;HPM_P2
2022/10/06 00:01:13;;;;;;;6.65;1.02;;;14.00;99.90;;;;;;5094707;28;20017;-39
2022/10/06 00:03:39;;;;;;;7.80;1.35;;;14.00;99.90;;;;;;5096490;28;20024;-41
2022/10/06 00:06:07;;;;;;;15.63;1.50;;;14.00;99.90;;;;;;5082173;28;20396;-40
2022/10/06 00:08:36;;;;;;;5.03;1.88;;;14.00;99.90;;;;;;5066946;28;20090;-40
2022/10/06 00:11:01;;;;;;;9.95;1.05;;;14.00;99.90;;;;;;5093209;28;20020;-41
2022/10/06 00:13:29;;;;;;;7.88;1.20;;;14.00;99.90;;;;;;5093610;28;20499;-41
2022/10/06 00:15:55;;;;;;;8.07;1.10;;;14.00;99.90;;;;;;5082372;28;20595;-39
2022/10/06 00:18:21;;;;;;;4.25;1.20;;;13.90;99.90;;;;;;5086198;28;20055;-41
2022/10/06 00:20:54;;;;;;;4.45;1.92;;;13.90;99.90;;;;;;5082057;28;20050;-41
2022/10/06 00:23:19;;;;;;;14.32;2.00;;;13.90;99.90;;;;;;5087523;28;20051;-40
2022/10/06 00:25:45;;;;;;;11.63;1.75;;;13.90;99.90;;;;;;5080302;28;20078;-41
2022/10/06 00:28:11;;;;;;;5.18;1.40;;;13.90;99.90;;;;;;5083460;28;20033;-40
2022/10/06 00:30:36;;;;;;;10.57;1.83;;;13.90;99.90;;;;;;5085631;28;20500;-39
2022/10/06 00:33:03;;;;;;;16.30;1.92;;;13.90;99.90;;;;;;5062459;28;20023;-32
2022/10/06 00:35:32;;;;;;;8.00;1.00;;;13.90;99.90;;;;;;5078565;28;20024;-36
2022/10/06 00:37:58;;;;;;;7.53;1.75;;;13.90;99.90;;;;;;5076243;28;20037;-35
2022/10/06 00:40:24;;;;;;;6.22;1.00;;;13.90;99.90;;;;;;5059981;28;20531;-37
2022/10/06 00:42:58;;;;;;;8.07;1.40;;;13.90;99.90;;;;;;5093961;28;20050;-34
2022/10/06 00:45:41;;;;;;;7.25;1.35;;;13.80;99.90;;;;;;5090533;28;20039;-33
2022/10/06 00:48:20;;;;;;;10.43;1.77;;;13.80;99.90;;;;;;5088083;28;20032;-35
2022/10/06 00:50:46;;;;;;;8.20;0.98;;;13.80;99.90;;;;;;5089248;28;20028;-37
2022/10/06 00:53:14;;;;;;;3.83;0.68;;;13.80;99.90;;;;;;5071055;28;20036;-36
2022/10/06 00:55:39;;;;;;;10.23;1.73;;;13.80;99.90;;;;;;5093403;28;20055;-51
2022/10/06 00:58:06;;;;;;;9.85;1.80;;;13.80;99.90;;;;;;5085542;28;20083;-36
2022/10/06 01:00:32;;;;;;;5.60;0.70;;;13.70;99.90;;;;;;5079565;28;20570;-35
2022/10/06 01:03:26;;;;;;;4.55;1.00;;;13.70;99.90;;;;;;5089845;28;20040;-37
2022/10/06 01:05:53;;;;;;;11.30;2.17;;;13.70;99.90;;;;;;5074483;28;20123;-33
2022/10/06 01:08:21;;;;;;;5.93;1.60;;;13.70;99.90;;;;;;5084741;28;20054;-34
2022/10/06 01:10:47;;;;;;;12.23;1.33;;;13.60;99.90;;;;;;5084249;28;20543;-32
2022/10/06 01:13:14;;;;;;;11.77;1.88;;;13.50;99.90;;;;;;5083256;28;20107;-36
2022/10/06 01:16:02;;;;;;;4.57;1.08;;;13.50;99.90;;;;;;5079417;28;20491;-39
2022/10/06 01:18:30;;;;;;;5.80;1.40;;;13.60;99.90;;;;;;5090418;28;20032;-35
2022/10/06 01:21:19;;;;;;;3.90;0.88;;;13.50;99.90;;;;;;5080338;28;20465;-38
2022/10/06 01:23:45;;;;;;;6.95;0.95;;;13.50;99.90;;;;;;5081313;28;20518;-34
2022/10/06 01:26:13;;;;;;;12.95;1.20;;;13.50;99.90;;;;;;5082807;28;20437;-33
2022/10/06 01:28:39;;;;;;;8.25;1.52;;;13.50;99.90;;;;;;5083616;28;20103;-34
2022/10/06 01:31:06;;;;;;;6.50;1.10;;;13.50;99.90;;;;;;5086695;28;20151;-36
2022/10/06 01:33:32;;;;;;;7.20;0.80;;;13.50;99.90;;;;;;5077005;28;20028;-45
2022/10/06 01:35:57;;;;;;;8.80;0.98;;;13.40;99.90;;;;;;5094812;28;20487;-60
2022/10/06 01:38:23;;;;;;;5.00;0.75;;;13.40;99.90;;;;;;5093023;28;20028;-38
2022/10/06 01:40:51;;;;;;;7.57;1.15;;;13.30;99.90;;;;;;5087906;28;20020;-39
2022/10/06 01:43:17;;;;;;;6.30;0.90;;;13.30;99.90;;;;;;5083406;28;20035;-40
2022/10/06 01:45:42;;;;;;;9.77;1.60;;;13.30;99.90;;;;;;5091862;28;20492;-33
2022/10/06 01:48:08;;;;;;;9.50;1.05;;;13.30;99.90;;;;;;5084965;28;20024;-34
2022/10/06 01:50:34;;;;;;;6.28;0.95;;;13.30;99.90;;;;;;5091646;28;20031;-34
2022/10/06 01:53:00;;;;;;;2.95;1.05;;;13.30;99.90;;;;;;5088234;28;20051;-36
2022/10/06 01:55:26;;;;;;;9.30;1.10;;;13.20;99.90;;;;;;5087372;28;20032;-34
2022/10/06 01:57:52;;;;;;;9.27;1.25;;;13.20;99.90;;;;;;5085145;28;20550;-32
2022/10/06 02:00:17;;;;;;;5.75;1.52;;;13.10;99.90;;;;;;5081154;28;20061;-35
2022/10/06 02:02:43;;;;;;;8.75;1.10;;;13.10;99.90;;;;;;5084885;28;20111;-38
2022/10/06 02:05:10;;;;;;;8.57;1.38;;;13.10;99.90;;;;;;5089995;28;20540;-37
2022/10/06 02:07:37;;;;;;;7.30;1.23;;;13.10;99.90;;;;;;5093218;28;20062;-33
2022/10/06 02:10:04;;;;;;;6.73;1.87;;;13.10;99.90;;;;;;5086645;28;20027;-35
2022/10/06 02:12:30;;;;;;;4.88;0.50;;;13.00;99.90;;;;;;5063521;28;20366;-47
2022/10/06 02:14:57;;;;;;;13.32;1.52;;;13.00;99.90;;;;;;5081861;28;20030;-36
2022/10/06 02:17:23;;;;;;;8.13;1.23;;;13.00;99.90;;;;;;5068891;28;20036;-38
2022/10/06 02:19:49;;;;;;;4.63;1.95;;;12.90;99.90;;;;;;5087815;28;20497;-40
2022/10/06 02:22:15;;;;;;;4.82;0.93;;;12.90;99.90;;;;;;5084475;28;20052;-35
2022/10/06 02:24:40;;;;;;;8.70;1.20;;;12.90;99.90;;;;;;5080081;28;20063;-41
2022/10/06 02:27:06;;;;;;;6.13;1.10;;;12.90;99.90;;;;;;5078263;28;20548;-40
2022/10/06 02:29:32;;;;;;;6.95;1.35;;;12.80;99.90;;;;;;5090799;28;20503;-39
2022/10/06 02:31:58;;;;;;;6.95;0.80;;;12.90;99.90;;;;;;5082056;28;20089;-35
2022/10/06 02:34:24;;;;;;;9.77;1.00;;;12.80;99.90;;;;;;5091216;28;20035;-34
2022/10/06 02:36:50;;;;;;;11.60;1.23;;;12.80;99.90;;;;;;5079483;28;20025;-35
2022/10/06 02:39:15;;;;;;;9.30;1.00;;;12.80;99.90;;;;;;5074553;28;20047;-40
2022/10/06 02:41:41;;;;;;;3.53;1.13;;;12.80;99.90;;;;;;5087787;28;20423;-41
2022/10/06 02:44:07;;;;;;;6.60;0.80;;;12.80;99.90;;;;;;5091125;28;20035;-45
2022/10/06 02:46:32;;;;;;;6.55;1.42;;;12.80;99.90;;;;;;5088950;28;20027;-40
2022/10/06 02:48:58;;;;;;;3.70;1.25;;;12.70;99.90;;;;;;5063779;28;20070;-39
2022/10/06 02:51:24;;;;;;;4.93;1.02;;;12.70;99.90;;;;;;5084647;28;20056;-40
2022/10/06 02:53:50;;;;;;;6.57;1.08;;;12.60;99.90;;;;;;5085723;28;20158;-48
2022/10/06 02:56:23;;;;;;;9.80;1.85;;;12.50;99.90;;;;;;5072920;28;20032;-39
2022/10/06 02:58:50;;;;;;;4.95;1.95;;;12.50;99.90;;;;;;5084878;28;20544;-36
2022/10/06 03:01:20;;;;;;;10.70;1.58;;;12.50;99.90;;;;;;5089404;28;20032;-34
2022/10/06 03:03:47;;;;;;;8.75;1.42;;;12.40;99.90;;;;;;5081319;28;20036;-31
2022/10/06 03:06:21;;;;;;;8.38;1.23;;;12.40;99.90;;;;;;5084099;28;20024;-33
2022/10/06 03:09:08;;;;;;;7.72;1.20;;;12.40;99.90;;;;;;5093471;28;20054;-36
2022/10/06 03:11:35;;;;;;;5.95;1.00;;;12.40;99.90;;;;;;5063174;28;20024;-34
2022/10/06 03:14:01;;;;;;;7.63;0.98;;;12.40;99.90;;;;;;5075495;28;20067;-39
2022/10/06 03:16:30;;;;;;;2.70;1.55;;;12.30;99.90;;;;;;5088974;28;20051;-31
2022/10/06 03:18:56;;;;;;;11.48;1.55;;;12.30;99.90;;;;;;5090604;28;20085;-34
2022/10/06 03:21:26;;;;;;;5.38;1.50;;;12.30;99.90;;;;;;5087756;28;20039;-35
2022/10/06 03:23:52;;;;;;;9.38;1.00;;;12.30;99.90;;;;;;5089466;28;20103;-35
2022/10/06 03:26:20;;;;;;;5.38;0.70;;;12.30;99.90;;;;;;5088318;28;20135;-33
2022/10/06 03:28:46;;;;;;;7.88;1.85;;;12.30;99.90;;;;;;5086229;28;20197;-34
2022/10/06 03:31:12;;;;;;;8.07;1.05;;;12.30;99.90;;;;;;5072670;28;20040;-36
2022/10/06 03:33:38;;;;;;;17.70;2.90;;;12.30;99.90;;;;;;5092711;28;20042;-35
2022/10/06 03:36:10;;;;;;;6.03;1.13;;;12.30;99.90;;;;;;5074401;28;20416;-35
2022/10/06 03:38:36;;;;;;;8.07;1.38;;;12.20;99.90;;;;;;5089768;28;20031;-36
2022/10/06 03:41:06;;;;;;;14.63;1.80;;;12.30;99.90;;;;;;5090679;28;20028;-41
2022/10/06 03:43:33;;;;;;;8.73;0.88;;;12.30;99.90;;;;;;5085186;28;20024;-35
2022/10/06 03:46:01;;;;;;;9.05;1.02;;;12.30;99.90;;;;;;5082535;28;20055;-36
2022/10/06 03:48:34;;;;;;;7.35;1.55;;;12.30;99.90;;;;;;5091423;28;20028;-34
2022/10/06 03:51:12;;;;;;;4.75;1.20;;;12.20;99.90;;;;;;5087867;28;20427;-37
2022/10/06 03:53:38;;;;;;;6.10;1.23;;;12.30;99.90;;;;;;5091644;28;20043;-31
2022/10/06 03:56:07;;;;;;;4.35;0.80;;;12.20;99.90;;;;;;5089518;28;20514;-34
2022/10/06 03:58:35;;;;;;;14.48;1.73;;;12.30;99.90;;;;;;5091096;28;20016;-40
2022/10/06 04:01:13;;;;;;;10.65;1.08;;;12.30;99.90;;;;;;5086870;28;20460;-40
2022/10/06 04:03:39;;;;;;;5.95;1.00;;;12.30;99.90;;;;;;5084119;28;20055;-38
2022/10/06 04:06:06;;;;;;;5.93;1.00;;;12.30;99.90;;;;;;5088965;28;20053;-39
2022/10/06 04:08:33;;;;;;;9.20;1.50;;;12.20;99.90;;;;;;5082849;28;20484;-40
2022/10/06 04:11:17;;;;;;;10.57;0.98;;;12.20;99.90;;;;;;5080824;28;20103;-40
2022/10/06 04:13:44;;;;;;;11.77;1.85;;;12.20;99.90;;;;;;5070918;28;20027;-44
2022/10/06 04:16:17;;;;;;;4.60;1.10;;;12.20;99.90;;;;;;5085183;28;20028;-39
2022/10/06 04:18:44;;;;;;;6.05;1.20;;;12.20;99.90;;;;;;5091701;28;20369;-34
2022/10/06 04:21:13;;;;;;;6.32;0.85;;;12.20;99.90;;;;;;5089320;28;20476;-44
2022/10/06 04:23:39;;;;;;;10.32;1.30;;;12.20;99.90;;;;;;5073043;28;20083;-40
2022/10/06 04:26:10;;;;;;;6.30;1.33;;;12.20;99.90;;;;;;5078857;28;20060;-38
2022/10/06 04:28:37;;;;;;;3.70;0.68;;;12.20;99.90;;;;;;5088334;28;20028;-40
2022/10/06 04:31:04;;;;;;;6.43;0.70;;;12.10;99.90;;;;;;5076249;28;20048;-38
2022/10/06 04:33:33;;;;;;;2.20;0.93;;;12.10;99.90;;;;;;5083990;28;20032;-43
2022/10/06 04:36:01;;;;;;;4.20;1.05;;;12.10;99.90;;;;;;5081330;28;20024;-40
2022/10/06 04:38:28;;;;;;;5.45;0.95;;;12.10;99.90;;;;;;5093843;28;20494;-40
2022/10/06 04:41:04;;;;;;;6.80;1.13;;;12.10;99.90;;;;;;5094029;28;20017;-39
2022/10/06 04:43:30;;;;;;;2.60;0.88;;;12.10;99.90;;;;;;5086829;28;20020;-39
2022/10/06 04:45:57;;;;;;;3.22;0.85;;;12.00;99.90;;;;;;5089652;28;20384;-40
2022/10/06 04:48:24;;;;;;;6.55;0.98;;;12.00;99.90;;;;;;5087073;28;20573;-43
2022/10/06 04:50:59;;;;;;;6.10;1.45;;;12.00;99.90;;;;;;5094661;28;20503;-40
2022/10/06 04:53:25;;;;;;;3.47;1.08;;;12.00;99.90;;;;;;5086831;28;20032;-39
2022/10/06 04:55:58;;;;;;;12.32;1.63;;;11.90;99.90;;;;;;5093758;28;20021;-33
2022/10/06 04:58:24;;;;;;;8.38;1.77;;;11.90;99.90;;;;;;5086214;28;20477;-49
2022/10/06 05:00:50;;;;;;;11.18;1.40;;;11.90;99.90;;;;;;5082448;28;20017;-35
2022/10/06 05:03:15;;;;;;;13.70;1.73;;;11.90;99.90;;;;;;5087916;28;20400;-38
2022/10/06 05:05:41;;;;;;;11.95;0.90;;;11.90;99.90;;;;;;5084238;28;20027;-38
2022/10/06 05:08:25;;;;;;;5.55;0.85;;;11.80;99.90;;;;;;5080988;28;20471;-39
2022/10/06 05:10:58;;;;;;;6.28;1.45;;;11.80;99.90;;;;;;5086619;28;20073;-39
2022/10/06 05:13:25;;;;;;;7.85;1.02;;;11.80;99.90;;;;;;5087538;28;20074;-39
2022/10/06 05:15:59;;;;;;;5.07;2.05;;;11.70;99.90;;;;;;5080992;28;20020;-39
2022/10/06 05:18:25;;;;;;;4.22;1.33;;;11.70;99.90;;;;;;5089026;28;20035;-39
2022/10/06 05:20:59;;;;;;;4.47;1.15;;;11.70;99.90;;;;;;5076129;28;20090;-42
2022/10/06 05:23:26;;;;;;;12.75;1.40;;;11.70;99.90;;;;;;5094592;28;20042;-41
2022/10/06 05:25:54;;;;;;;8.95;1.15;;;11.60;99.90;;;;;;5087904;28;20017;-38
2022/10/06 05:28:21;;;;;;;9.75;1.15;;;11.60;99.90;;;;;;5086861;28;20430;-40
2022/10/06 05:31:27;;;;;;;4.45;0.50;;;11.60;99.90;;;;;;5086008;28;20049;-39
2022/10/06 05:33:54;;;;;;;6.30;1.20;;;11.60;99.90;;;;;;5076510;28;20090;-39
2022/10/06 05:36:25;;;;;;;9.80;1.48;;;11.60;99.90;;;;;;5084967;28;20048;-38
2022/10/06 05:38:51;;;;;;;2.22;0.88;;;11.60;99.90;;;;;;5062572;28;20485;-40
2022/10/06 05:41:20;;;;;;;12.25;1.20;;;11.60;99.90;;;;;;5093698;28;20034;-39
2022/10/06 05:43:46;;;;;;;7.07;1.75;;;11.60;99.90;;;;;;5066699;28;20443;-40
2022/10/06 05:46:19;;;;;;;7.90;1.13;;;11.60;99.90;;;;;;5091827;28;20048;-36
2022/10/06 05:48:49;;;;;;;8.32;1.15;;;11.60;99.90;;;;;;5090399;28;20032;-33
2022/10/06 05:51:16;;;;;;;16.02;1.33;;;11.60;99.90;;;;;;5087463;28;20039;-33
2022/10/06 05:53:43;;;;;;;7.40;1.50;;;11.50;99.90;;;;;;5091474;28;20059;-33
2022/10/06 05:56:10;;;;;;;7.95;1.17;;;11.60;99.90;;;;;;5061323;28;20024;-33
2022/10/06 05:58:37;;;;;;;7.30;1.30;;;11.60;99.90;;;;;;5091817;28;20380;-36
2022/10/06 06:01:11;;;;;;;8.32;2.00;;;11.60;99.90;;;;;;5086319;28;20020;-30
2022/10/06 06:03:38;;;;;;;4.82;0.95;;;11.50;99.90;;;;;;5075811;28;20439;-33
2022/10/06 06:06:15;;;;;;;4.23;1.43;;;11.60;99.90;;;;;;5090293;28;20024;-35
2022/10/06 06:08:40;;;;;;;8.00;1.15;;;11.60;99.90;;;;;;5093137;28;20080;-34
2022/10/06 06:11:10;;;;;;;4.95;1.40;;;11.60;99.90;;;;;;5088137;28;20035;-39
2022/10/06 06:13:36;;;;;;;12.85;1.48;;;11.60;99.90;;;;;;5090961;28;20487;-32
2022/10/06 06:16:04;;;;;;;14.77;1.85;;;11.70;99.90;;;;;;5074827;28;20028;-34
2022/10/06 06:18:31;;;;;;;11.55;1.50;;;11.70;99.90;;;;;;5086615;28;20107;-33
2022/10/06 06:20:59;;;;;;;9.32;1.10;;;11.70;99.90;;;;;;5088661;28;20066;-42
2022/10/06 06:23:30;;;;;;;8.25;1.52;;;11.70;99.90;;;;;;5086981;28;20473;-37
2022/10/06 06:26:01;;;;;;;15.63;1.75;;;11.70;99.90;;;;;;5069472;28;20742;-34
2022/10/06 06:28:28;;;;;;;9.90;1.35;;;11.80;99.90;;;;;;5077483;28;20029;-34
2022/10/06 06:31:08;;;;;;;9.40;1.48;;;11.80;99.90;;;;;;5090246;28;20457;-32
2022/10/06 06:33:36;;;;;;;11.48;1.77;;;11.80;99.90;;;;;;5090890;28;20507;-32
2022/10/06 06:36:10;;;;;;;14.77;1.27;;;11.90;99.90;;;;;;5091837;28;20574;-34
2022/10/06 06:38:36;;;;;;;9.07;1.10;;;11.90;99.90;;;;;;5091846;28;20361;-32
2022/10/06 06:41:01;;;;;;;8.70;2.08;;;11.90;99.90;;;;;;5091611;28;20028;-31
2022/10/06 06:43:27;;;;;;;4.10;0.82;;;12.00;99.90;;;;;;5086270;28;20040;-35
2022/10/06 06:46:00;;;;;;;9.60;1.35;;;12.00;99.90;;;;;;5081734;28;20028;-31
2022/10/06 06:48:25;;;;;;;7.30;1.65;;;12.00;99.90;;;;;;5071999;28;20038;-36
2022/10/06 06:50:58;;;;;;;5.32;1.50;;;12.10;99.90;;;;;;5091111;28;20028;-34
2022/10/06 06:53:24;;;;;;;10.70;1.92;;;12.00;99.90;;;;;;5092287;28;20438;-37
2022/10/06 06:58:35;;;;;;;5.10;1.20;;;12.10;99.90;;;;;;5091936;28;20042;-35
2022/10/06 07:01:10;;;;;;;7.10;1.45;;;12.20;99.90;;;;;;5089014;28;20024;-36
2022/10/06 07:03:38;;;;;;;10.70;1.70;;;12.30;99.90;;;;;;5089076;28;20024;-31
2022/10/06 07:06:08;;;;;;;7.97;0.93;;;12.40;99.90;;;;;;5084071;28;20369;-39
2022/10/06 07:08:37;;;;;;;10.35;1.13;;;12.40;99.90;;;;;;5090634;28;20784;-34
2022/10/06 07:11:18;;;;;;;15.05;1.33;;;12.50;99.90;;;;;;5082530;28;20468;-36
2022/10/06 07:13:45;;;;;;;13.63;1.30;;;12.50;99.90;;;;;;5085522;28;20704;-36
2022/10/06 07:27:25;;;;;;;16.48;3.00;;;12.70;99.90;;;;;;5079963;28;20047;-36
2022/10/06 07:29:55;;;;;;;5.55;1.15;;;12.80;99.90;;;;;;5086519;28;20590;-31
2022/10/06 07:32:25;;;;;;;11.80;1.35;;;12.80;99.90;;;;;;5066380;28;20097;-38
2022/10/06 07:34:51;;;;;;;9.40;1.45;;;12.90;99.90;;;;;;5078555;28;20155;-35
2022/10/06 07:37:17;;;;;;;9.63;1.90;;;12.90;99.90;;;;;;5079763;28;20454;-34
2022/10/06 07:39:45;;;;;;;6.90;1.20;;;13.00;99.90;;;;;;5076369;28;20388;-34
2022/10/06 07:42:17;;;;;;;6.73;1.20;;;13.00;99.90;;;;;;5080006;28;20021;-32
2022/10/06 07:45:36;;;;;;;5.10;1.10;;;13.10;99.90;;;;;;5080146;28;20025;-35
2022/10/06 07:47:49;;;;;;;6.35;1.40;;;13.10;99.90;;;;;;5088524;28;20036;-37
2022/10/06 07:50:14;;;;;;;7.07;2.33;;;13.20;99.90;;;;;;5074423;28;20503;-34
2022/10/06 07:52:40;;;;;;;5.05;1.27;;;13.20;99.90;;;;;;5081671;28;20028;-34
2022/10/06 07:55:06;;;;;;;5.53;1.17;;;13.40;99.90;;;;;;5089089;28;20024;-35
2022/10/06 07:57:34;;;;;;;5.53;1.05;;;13.40;99.90;;;;;;5087892;28;20024;-43
2022/10/06 08:00:00;;;;;;;5.28;1.20;;;13.50;99.90;;;;;;5088202;28;20020;-39
2022/10/06 08:02:27;;;;;;;10.05;1.48;;;13.50;99.90;;;;;;5088665;28;20483;-42
2022/10/06 08:04:53;;;;;;;11.77;1.47;;;13.60;99.90;;;;;;5062201;28;20138;-42
2022/10/06 08:07:19;;;;;;;11.57;1.75;;;13.60;99.90;;;;;;5076576;28;20173;-36
2022/10/06 08:09:44;;;;;;;13.13;2.45;;;13.70;99.90;;;;;;5090343;28;20610;-35
2022/10/06 08:14:54;;;;;;;6.20;1.27;;;13.80;99.90;;;;;;5079318;28;20104;-36
2022/10/06 08:17:19;;;;;;;6.82;1.90;;;13.80;99.90;;;;;;5084993;28;20111;-40
2022/10/06 08:19:46;;;;;;;2.78;0.93;;;14.00;99.90;;;;;;5085038;28;20429;-39
2022/10/06 08:22:14;;;;;;;6.50;1.35;;;14.00;99.90;;;;;;5089349;28;20073;-30
2022/10/06 08:24:40;;;;;;;13.98;1.55;;;14.10;99.90;;;;;;5087380;28;20396;-33
2022/10/06 08:27:08;;;;;;;12.02;1.40;;;14.20;99.90;;;;;;5066531;28;20017;-31
2022/10/06 08:29:34;;;;;;;;;;;14.20;99.90;;;;;;5088597;28;20012;-39
2022/10/06 08:32:00;;;;;;;11.07;1.38;;;14.30;99.90;;;;;;5087061;28;19941;-32
2022/10/06 08:34:26;;;;;;;6.38;1.38;;;14.30;99.90;;;;;;5086155;28;20479;-31
2022/10/06 08:36:52;;;;;;;9.20;2.03;;;14.40;99.90;;;;;;5084053;28;20012;-40
2022/10/06 08:39:18;;;;;;;10.85;1.42;;;14.50;99.90;;;;;;5086179;28;20024;-33
2022/10/06 08:41:49;;;;;;;10.38;1.90;;;14.50;99.90;;;;;;5087793;28;20089;-38
2022/10/06 08:44:32;;;;;;;9.40;1.45;;;14.40;99.90;;;;;;5092352;28;20024;-37
2022/10/06 08:47:12;;;;;;;10.02;1.38;;;14.50;99.90;;;;;;5092225;28;20047;-33
2022/10/06 08:49:53;;;;;;;11.27;1.35;;;14.60;99.90;;;;;;5058625;28;20482;-35
2022/10/06 08:52:46;;;;;;;17.27;1.25;;;14.70;99.90;;;;;;5085293;28;20031;-35
2022/10/06 08:55:29;;;;;;;8.98;1.20;;;14.80;99.90;;;;;;5075277;28;20514;-33
2022/10/06 08:58:12;;;;;;;6.47;1.60;;;14.90;99.90;;;;;;5085529;28;20016;-34
2022/10/06 09:00:38;;;;;;;19.85;2.33;;;14.90;99.90;;;;;;5080844;28;20340;-38
2022/10/06 09:03:04;;;;;;;6.93;1.02;;;15.10;99.90;;;;;;5084945;28;20035;-33
2022/10/06 09:05:33;;;;;;;8.32;1.27;;;15.20;99.90;;;;;;5063279;28;20610;-38
2022/10/06 09:08:20;;;;;;;5.47;0.98;;;15.30;99.90;;;;;;5085974;28;20016;-34
2022/10/06 09:11:19;;;;;;;13.02;1.40;;;15.40;99.90;;;;;;5084089;28;20057;-37
2022/10/06 09:13:56;;;;;;;5.65;1.40;;;15.30;99.90;;;;;;5084723;28;20032;-33
2022/10/06 09:16:29;;;;;;;8.70;1.10;;;15.40;99.90;;;;;;5079985;28;20047;-39
2022/10/06 09:19:07;;;;;;;2.75;1.52;;;15.50;99.90;;;;;;5086323;28;20048;-39
2022/10/06 09:21:38;;;;;;;8.13;1.08;;;15.60;99.90;;;;;;5082270;28;20031;-39
2022/10/06 09:24:12;;;;;;;3.83;0.93;;;15.60;99.90;;;;;;5081808;28;20034;-41
2022/10/06 09:26:44;;;;;;;4.88;1.27;;;15.70;99.90;;;;;;5083018;28;20034;-40
2022/10/06 09:31:55;;;;;;;2.08;0.90;;;15.70;99.90;;;;;;5082589;28;20503;-44
2022/10/06 09:34:26;;;;;;;3.40;0.77;;;15.80;99.90;;;;;;5078052;28;20028;-37
2022/10/06 09:37:07;;;;;;;5.95;1.55;;;15.80;99.90;;;;;;5090694;28;20075;-36
2022/10/06 09:39:38;;;;;;;8.45;1.40;;;15.80;99.90;;;;;;5090542;28;20484;-35
2022/10/06 09:42:09;;;;;;;4.28;1.23;;;15.90;99.90;;;;;;5092896;28;20460;-37
2022/10/06 09:44:49;;;;;;;8.80;1.13;;;16.00;99.90;;;;;;5078361;28;20075;-36
2022/10/06 09:47:43;;;;;;;8.82;1.17;;;16.10;99.90;;;;;;5089928;28;20115;-39
2022/10/06 09:50:21;;;;;;;9.95;0.80;;;16.20;99.90;;;;;;5076307;28;20043;-31
2022/10/06 09:53:04;;;;;;;4.95;0.90;;;16.30;99.90;;;;;;5074449;28;20536;-33
2022/10/06 09:55:35;;;;;;;5.22;0.75;;;16.40;99.90;;;;;;5074852;28;20527;-36
2022/10/06 09:58:01;;;;;;;7.10;1.45;;;16.40;99.90;;;;;;5065677;28;20484;-31
2022/10/06 10:00:34;;;;;;;5.32;0.77;;;16.50;99.90;;;;;;5087946;28;20065;-32
2022/10/06 10:03:10;;;;;;;7.50;1.05;;;16.70;99.90;;;;;;5094258;28;20145;-41
2022/10/06 10:05:38;;;;;;;1.80;0.65;;;16.70;99.90;;;;;;5067723;28;20394;-39
2022/10/06 10:08:08;;;;;;;4.75;0.70;;;16.70;99.90;;;;;;5076369;28;20483;-54
2022/10/06 10:10:35;;;;;;;6.20;0.68;;;16.80;99.90;;;;;;5075529;28;20030;-39
2022/10/06 10:13:02;;;;;;;3.70;0.60;;;16.80;99.90;;;;;;5081532;28;20027;-41
2022/10/06 10:15:30;;;;;;;4.35;0.63;;;16.80;99.90;;;;;;5087097;28;20472;-39
2022/10/06 10:17:57;;;;;;;2.50;0.70;;;16.80;99.90;;;;;;5093344;28;20016;-40
2022/10/06 10:20:33;;;;;;;8.00;0.85;;;16.90;99.90;;;;;;5090601;28;20093;-37
2022/10/06 10:23:06;;;;;;;6.30;1.27;;;17.00;99.90;;;;;;5087764;28;20472;-41
2022/10/06 10:25:54;;;;;;;3.38;0.80;;;17.10;99.90;;;;;;5083035;28;20469;-40
2022/10/06 10:28:41;;;;;;;2.97;0.47;;;17.10;99.90;;;;;;5077804;28;20032;-40
2022/10/06 10:31:19;;;;;;;6.53;1.17;;;17.20;99.90;;;;;;5075610;28;20038;-41
2022/10/06 10:33:52;;;;;;;6.60;1.50;;;17.20;99.90;;;;;;5091357;28;20032;-41
2022/10/06 10:36:27;;;;;;;1.35;0.70;;;17.20;99.90;;;;;;5093078;28;20487;-41
2022/10/06 10:38:54;;;;;;;4.97;1.00;;;17.20;99.90;;;;;;5091972;28;20468;-37
2022/10/06 10:41:27;;;;;;;3.10;0.60;;;17.20;99.90;;;;;;5072677;28;20061;-41
2022/10/06 10:44:03;;;;;;;4.10;0.80;;;17.20;99.90;;;;;;5084419;28;20479;-41
2022/10/06 10:46:54;;;;;;;10.68;1.13;;;17.30;99.90;;;;;;5074681;28;20032;-41
2022/10/06 10:49:31;;;;;;;6.82;1.23;;;17.30;99.90;;;;;;5085948;28;20036;-40
2022/10/06 10:52:11;;;;;;;3.67;0.80;;;17.40;99.90;;;;;;5079347;28;20035;-43
2022/10/06 10:54:45;;;;;;;1.42;1.23;;;17.40;99.90;;;;;;5086734;28;20379;-40
2022/10/06 10:57:22;;;;;;;2.25;0.88;;;17.30;99.90;;;;;;5075869;28;20023;-37
2022/10/06 10:59:58;;;;;;;5.82;0.93;;;17.30;99.90;;;;;;5074916;28;20066;-41
2022/10/06 11:02:25;;;;;;;7.90;1.20;;;17.40;99.90;;;;;;5073684;28;20028;-43
2022/10/06 11:05:00;;;;;;;3.92;1.40;;;17.40;99.90;;;;;;5078140;28;20036;-52
2022/10/06 11:07:49;;;;;;;4.15;1.05;;;17.40;99.90;;;;;;5092305;28;20468;-57
2022/10/06 11:10:23;;;;;;;4.07;0.80;;;17.40;99.90;;;;;;5079951;28;20032;-41
2022/10/06 11:13:23;;;;;;;3.25;0.60;;;17.50;99.90;;;;;;5077476;28;20081;-36
2022/10/06 11:16:02;;;;;;;7.30;1.27;;;17.60;99.90;;;;;;5090887;28;20093;-34
2022/10/06 11:18:42;;;;;;;2.25;1.08;;;17.40;99.90;;;;;;5092313;28;20365;-33
2022/10/06 11:21:39;;;;;;;3.88;0.30;;;17.20;99.90;;;;;;5090414;28;20070;-35
2022/10/06 11:24:25;;;;;;;7.53;0.70;;;17.20;99.90;;;;;;5086647;28;20067;-37
2022/10/06 11:27:07;;;;;;;2.67;1.02;;;17.30;99.90;;;;;;5084809;28;20059;-36
2022/10/06 11:29:47;;;;;;;3.03;1.00;;;17.40;99.90;;;;;;5083980;28;20472;-41
2022/10/06 11:32:51;;;;;;;7.32;1.45;;;17.50;99.90;;;;;;5089355;28;20040;-41
2022/10/06 11:35:20;;;;;;;3.58;0.80;;;17.60;99.90;;;;;;5067416;28;20075;-40
2022/10/06 11:37:56;;;;;;;3.80;1.10;;;17.70;99.90;;;;;;5092671;28;20387;-41
2022/10/06 11:40:48;;;;;;;5.75;0.90;;;17.80;99.90;;;;;;5091748;28;20361;-41
2022/10/06 11:43:27;;;;;;;6.00;0.98;;;18.00;99.90;;;;;;5083037;28;20028;-40
2022/10/06 11:46:02;;;;;;;8.23;1.63;;;18.20;99.90;;;;;;5095275;28;20144;-41
2022/10/06 11:48:31;;;;;;;2.88;0.38;;;18.30;99.90;;;;;;5095803;28;20020;-42
2022/10/06 11:51:20;;;;;;;1.27;0.52;;;18.30;99.90;;;;;;5095351;28;20499;-40
2022/10/06 11:53:46;;;;;;;4.03;0.93;;;18.20;99.90;;;;;;5092660;28;20464;-41
2022/10/06 11:56:34;;;;;;;10.23;1.13;;;18.10;99.90;;;;;;5077773;28;20024;-40
2022/10/06 11:59:31;;;;;;;0.93;0.40;;;17.90;99.90;;;;;;5087181;28;20020;-44
2022/10/06 12:01:57;;;;;;;8.20;0.65;;;17.90;99.90;;;;;;5089793;28;20043;-43
2022/10/06 12:04:25;;;;;;;1.20;0.40;;;18.00;99.90;;;;;;5094741;28;20035;-40
2022/10/06 12:06:53;;;;;;;6.55;1.08;;;17.90;99.90;;;;;;5081830;28;20109;-45
2022/10/06 12:09:24;;;;;;;3.10;0.68;;;17.70;99.90;;;;;;5076057;28;20472;-39
2022/10/06 12:11:55;;;;;;;3.88;0.90;;;17.50;99.90;;;;;;5063086;28;20044;-40
2022/10/06 12:14:32;;;;;;;6.68;0.75;;;17.50;99.90;;;;;;5089494;28;20021;-39
2022/10/06 12:17:19;;;;;;;3.85;0.68;;;17.50;99.90;;;;;;5085929;28;20460;-41
2022/10/06 12:20:06;;;;;;;2.85;1.13;;;17.70;99.90;;;;;;5076941;28;20017;-50
2022/10/06 12:22:42;;;;;;;2.60;0.70;;;17.80;99.90;;;;;;5095578;28;20028;-41
2022/10/06 12:25:28;;;;;;;0.73;0.38;;;18.00;99.90;;;;;;5083967;28;20024;-40
2022/10/06 12:28:28;;;;;;;6.70;0.75;;;17.90;99.90;;;;;;5095501;28;20421;-42
2022/10/06 12:31:09;;;;;;;2.65;0.70;;;18.10;99.90;;;;;;5087781;28;20045;-40
2022/10/06 12:33:39;;;;;;;9.18;1.30;;;18.30;99.90;;;;;;5084071;28;20422;-42
2022/10/06 12:36:27;;;;;;;1.50;0.52;;;18.30;99.90;;;;;;5094400;28;20387;-41
2022/10/06 12:39:23;;;;;;;6.10;0.82;;;18.40;99.90;;;;;;5094442;28;20077;-38
2022/10/06 12:42:06;;;;;;;7.13;0.73;;;18.10;99.90;;;;;;5078764;28;20438;-41
2022/10/06 12:44:39;;;;;;;4.07;0.70;;;18.20;99.90;;;;;;5087267;28;20028;-38
2022/10/06 12:47:14;;;;;;;4.97;0.93;;;18.20;99.90;;;;;;5090463;28;20035;-40
2022/10/06 12:50:11;;;;;;;5.70;0.50;;;18.40;99.90;;;;;;5092508;28;20039;-38
2022/10/06 12:53:04;;;;;;;7.55;0.95;;;18.50;99.90;;;;;;5078179;28;20036;-41
2022/10/06 12:55:47;;;;;;;4.70;0.63;;;18.60;99.90;;;;;;5085269;28;20112;-40
2022/10/06 12:58:31;;;;;;;9.77;0.90;;;18.80;99.90;;;;;;5094709;28;20426;-39
2022/10/06 13:01:11;;;;;;;4.65;0.70;;;19.00;99.90;;;;;;5093174;28;20047;-39
2022/10/06 13:03:37;;;;;;;4.68;0.80;;;19.00;99.90;;;;;;5082130;28;20020;-44
2022/10/06 13:06:06;;;;;;;3.08;0.90;;;19.00;99.90;;;;;;5063993;28;20032;-42
2022/10/06 13:08:34;;;;;;;3.45;0.80;;;19.10;99.90;;;;;;5095457;28;20032;-39
2022/10/06 13:11:14;;;;;;;2.58;0.85;;;19.20;99.90;;;;;;5093920;28;20484;-39
2022/10/06 13:14:06;;;;;;;2.35;0.70;;;19.30;99.90;;;;;;5090481;28;20074;-41
2022/10/06 13:16:39;;;;;;;4.18;0.60;;;19.20;99.90;;;;;;5092709;28;20540;-40
2022/10/06 13:19:22;;;;;;;5.30;1.08;;;19.20;99.90;;;;;;5092471;28;20028;-41
2022/10/06 13:21:47;;;;;;;5.65;0.85;;;19.30;99.90;;;;;;5086127;28;20497;-40
2022/10/06 13:24:20;;;;;;;3.33;0.75;;;19.20;99.90;;;;;;5079775;28;20112;-41
2022/10/06 13:26:47;;;;;;;4.57;0.95;;;19.20;99.90;;;;;;5064178;28;20032;-52
2022/10/06 13:29:19;;;;;;;3.70;0.45;;;19.30;99.90;;;;;;5082893;28;20393;-39